Time;durP1;ratioP1;P1;durP2;ratioP2;P2;SDS_P1;SDS_P2;PMS_P1;PMS_P2;Temp;Humidity;BMP_temperature;BMP_pressure;BME280_temperature;BME280_humidity;BME280_pressure;Samples;Min_cycle;Max_cycle;Signal;HPM_P1;HPM_P2
2022/06/01 00:00:54;;;;;;;10.88;8.98;;;;;;;;;;4957994;28;20046;-81
2022/06/01 00:03:21;;;;;;;13.02;10.35;;;;;;;;;;4958334;28;20054;-81
2022/06/01 00:05:47;;;;;;;11.15;9.05;;;;;;;;;;4974890;28;20034;-82
2022/06/01 00:08:13;;;;;;;12.75;10.43;;;;;;;;;;4957810;28;20050;-82
2022/06/01 00:10:39;;;;;;;12.63;10.10;;;;;;;;;;4957602;28;20467;-81
2022/06/01 00:13:05;;;;;;;13.25;10.30;;;;;;;;;;4975321;28;20073;-80
2022/06/01 00:15:31;;;;;;;12.82;10.00;;;;;;;;;;4974797;28;20042;-81
2022/06/01 00:17:58;;;;;;;13.88;9.75;;;;;;;;;;4957698;28;20062;-82
2022/06/01 00:20:25;;;;;;;12.65;10.07;;;;;;;;;;4957598;28;20363;-81
2022/06/01 00:22:51;;;;;;;13.82;9.60;;;;;;;;;;4974920;28;20047;-81
2022/06/01 00:25:17;;;;;;;11.13;9.93;;;;;;;;;;4957574;28;20430;-81
2022/06/01 00:27:43;;;;;;;12.45;10.52;;;;;;;;;;4974683;28;20035;-82
2022/06/01 00:30:12;;;;;;;12.65;10.30;;;;;;;;;;4957209;28;20038;-82
2022/06/01 00:32:38;;;;;;;14.18;10.98;;;;;;;;;;4974949;28;20042;-81
2022/06/01 00:35:06;;;;;;;13.13;10.60;;;;;;;;;;4957271;28;20081;-81
2022/06/01 00:37:32;;;;;;;15.18;11.52;;;;;;;;;;4974813;28;20122;-81
2022/06/01 00:39:58;;;;;;;14.60;10.68;;;;;;;;;;4957216;28;20046;-81
2022/06/01 00:42:27;;;;;;;12.85;10.63;;;;;;;;;;4974359;28;20094;-82
2022/06/01 00:44:53;;;;;;;12.70;10.50;;;;;;;;;;4974466;28;20367;-81
2022/06/01 00:47:20;;;;;;;13.18;10.75;;;;;;;;;;4956881;28;20054;-81
2022/06/01 00:49:51;;;;;;;13.10;10.75;;;;;;;;;;4957138;28;20039;-82
2022/06/01 00:52:35;;;;;;;11.73;10.35;;;;;;;;;;4957080;28;20047;-81
2022/06/01 00:55:01;;;;;;;12.77;10.45;;;;;;;;;;4957006;28;20077;-82
2022/06/01 00:57:27;;;;;;;13.13;10.10;;;;;;;;;;4956766;28;20078;-82
2022/06/01 00:59:53;;;;;;;12.90;11.43;;;;;;;;;;4957136;28;20105;-82
2022/06/01 01:02:19;;;;;;;13.48;11.23;;;;;;;;;;4974204;28;20050;-82
2022/06/01 01:04:45;;;;;;;12.27;10.73;;;;;;;;;;4956570;28;20042;-82
2022/06/01 01:07:12;;;;;;;14.35;11.45;;;;;;;;;;4973541;28;20050;-82
2022/06/01 01:09:38;;;;;;;13.43;11.02;;;;;;;;;;4956886;28;20491;-81
2022/06/01 01:12:06;;;;;;;12.48;10.90;;;;;;;;;;4956605;28;20039;-81
2022/06/01 01:14:34;;;;;;;14.18;11.48;;;;;;;;;;4956658;28;20050;-82
2022/06/01 01:17:00;;;;;;;11.60;10.13;;;;;;;;;;4973789;28;20367;-82
2022/06/01 01:19:39;;;;;;;13.75;10.85;;;;;;;;;;4974368;28;20046;-82
2022/06/01 01:22:11;;;;;;;14.60;10.80;;;;;;;;;;4973882;28;20043;-82
2022/06/01 01:24:45;;;;;;;12.70;10.73;;;;;;;;;;4956660;28;20565;-82
2022/06/01 01:27:10;;;;;;;14.18;11.90;;;;;;;;;;4973680;28;20105;-82
2022/06/01 01:29:44;;;;;;;14.57;11.82;;;;;;;;;;4956940;28;20050;-82
2022/06/01 01:32:11;;;;;;;15.45;12.25;;;;;;;;;;4956792;28;20517;-82
2022/06/01 01:34:38;;;;;;;13.57;11.18;;;;;;;;;;4956497;28;20118;-82
2022/06/01 01:37:05;;;;;;;13.80;10.73;;;;;;;;;;4973938;28;20075;-82
2022/06/01 01:39:33;;;;;;;15.02;11.25;;;;;;;;;;4956488;28;20107;-82
2022/06/01 01:41:59;;;;;;;13.82;11.48;;;;;;;;;;4956602;28;20046;-82
2022/06/01 01:44:30;;;;;;;15.82;11.93;;;;;;;;;;4974018;28;20395;-81
2022/06/01 01:46:58;;;;;;;17.27;12.15;;;;;;;;;;4973373;28;20402;-82
2022/06/01 01:49:25;;;;;;;16.80;12.45;;;;;;;;;;4956425;28;20050;-81
2022/06/01 01:51:53;;;;;;;14.45;11.88;;;;;;;;;;4973660;28;20068;-82
2022/06/01 01:54:34;;;;;;;15.00;12.68;;;;;;;;;;4956471;28;20039;-81
2022/06/01 01:57:06;;;;;;;15.63;12.10;;;;;;;;;;4956356;28;20140;-81
2022/06/01 01:59:52;;;;;;;14.75;11.93;;;;;;;;;;4940874;28;20480;-81
2022/06/01 02:02:18;;;;;;;14.60;12.35;;;;;;;;;;4934282;28;20051;-81
2022/06/01 02:07:36;;;;;;;13.23;11.75;;;;;;;;;;4973575;28;20047;-81
2022/06/01 02:12:48;;;;;;;14.17;11.67;;;;;;;;;;4973418;28;20043;-81
2022/06/01 02:15:17;;;;;;;13.60;10.95;;;;;;;;;;4956808;28;21257;-82
2022/06/01 02:17:54;;;;;;;16.58;12.90;;;;;;;;;;4957934;28;20431;-82
2022/06/01 02:20:24;;;;;;;14.10;12.43;;;;;;;;;;4977099;28;20446;-82
2022/06/01 02:22:51;;;;;;;16.15;11.77;;;;;;;;;;4959703;28;20386;-81
2022/06/01 02:25:17;;;;;;;16.33;11.80;;;;;;;;;;4959534;28;20173;-82
2022/06/01 02:27:44;;;;;;;15.73;11.85;;;;;;;;;;4959294;28;20054;-82
2022/06/01 02:30:16;;;;;;;15.00;12.45;;;;;;;;;;4959796;28;20039;-82
2022/06/01 02:32:42;;;;;;;14.27;12.07;;;;;;;;;;4959327;28;20049;-82
2022/06/01 02:35:10;;;;;;;14.93;12.10;;;;;;;;;;4959383;28;20050;-81
2022/06/01 02:37:39;;;;;;;15.98;13.13;;;;;;;;;;4959482;28;20059;-81
2022/06/01 02:40:07;;;;;;;14.90;12.38;;;;;;;;;;4959397;28;20051;-81
2022/06/01 02:42:33;;;;;;;14.85;11.45;;;;;;;;;;4959325;28;20471;-82
2022/06/01 02:45:01;;;;;;;15.63;11.57;;;;;;;;;;4976612;28;20039;-82
2022/06/01 02:47:28;;;;;;;14.60;11.40;;;;;;;;;;4959005;28;20089;-81
2022/06/01 02:49:54;;;;;;;14.30;12.02;;;;;;;;;;4976653;28;20450;-81
2022/06/01 02:52:22;;;;;;;15.43;12.27;;;;;;;;;;4958889;28;20055;-82
2022/06/01 02:54:48;;;;;;;16.92;12.75;;;;;;;;;;4959360;28;20351;-81
2022/06/01 02:57:14;;;;;;;13.60;11.90;;;;;;;;;;4958870;28;20042;-81
2022/06/01 02:59:40;;;;;;;14.77;11.63;;;;;;;;;;4959155;28;20050;-82
2022/06/01 03:02:09;;;;;;;15.60;12.20;;;;;;;;;;4976503;28;20332;-82
2022/06/01 03:04:35;;;;;;;15.10;11.95;;;;;;;;;;4959141;28;20042;-81
2022/06/01 03:07:02;;;;;;;15.52;12.43;;;;;;;;;;4958642;28;20082;-82
2022/06/01 03:09:28;;;;;;;15.75;12.23;;;;;;;;;;4959210;28;20126;-82
2022/06/01 03:11:54;;;;;;;12.73;11.23;;;;;;;;;;4976171;28;20039;-82
2022/06/01 03:14:20;;;;;;;15.00;12.25;;;;;;;;;;4976233;28;20049;-81
2022/06/01 03:16:46;;;;;;;15.40;12.15;;;;;;;;;;4958817;28;20398;-81
2022/06/01 03:19:12;;;;;;;14.15;12.00;;;;;;;;;;4958765;28;20050;-82
2022/06/01 03:21:40;;;;;;;14.20;11.50;;;;;;;;;;4958591;28;20158;-82
2022/06/01 03:24:06;;;;;;;14.88;11.77;;;;;;;;;;4958907;28;20483;-81
2022/06/01 03:26:32;;;;;;;15.23;12.68;;;;;;;;;;4958444;28;20047;-81
2022/06/01 03:28:58;;;;;;;15.80;13.25;;;;;;;;;;4957585;28;20118;-81
2022/06/01 03:31:24;;;;;;;15.10;12.85;;;;;;;;;;4976013;28;20050;-81
2022/06/01 03:33:50;;;;;;;15.52;13.07;;;;;;;;;;4958317;28;20399;-81
2022/06/01 03:36:16;;;;;;;18.13;13.05;;;;;;;;;;4975872;28;20096;-81
2022/06/01 03:38:42;;;;;;;17.58;14.38;;;;;;;;;;4975635;28;20042;-81
2022/06/01 03:41:08;;;;;;;18.00;13.68;;;;;;;;;;4958641;28;20558;-82
2022/06/01 03:46:19;;;;;;;17.30;13.68;;;;;;;;;;4975490;28;20047;-83
2022/06/01 03:48:45;;;;;;;18.98;13.88;;;;;;;;;;4957936;28;20058;-82
2022/06/01 03:51:11;;;;;;;21.33;15.15;;;;;;;;;;4958214;28;20143;-82
2022/06/01 03:53:37;;;;;;;19.60;14.63;;;;;;;;;;4958087;28;20394;-81
2022/06/01 03:56:03;;;;;;;17.27;13.98;;;;;;;;;;4958086;28;20639;-81
2022/06/01 03:58:29;;;;;;;18.42;15.13;;;;;;;;;;4957952;28;20046;-81
2022/06/01 04:00:55;;;;;;;19.42;15.30;;;;;;;;;;4958163;28;20076;-82
2022/06/01 04:03:21;;;;;;;16.08;14.38;;;;;;;;;;4957722;28;20097;-81
2022/06/01 04:05:48;;;;;;;18.70;15.50;;;;;;;;;;4958039;28;20043;-81
2022/06/01 04:08:14;;;;;;;16.15;14.40;;;;;;;;;;4975169;28;20105;-81
2022/06/01 04:10:44;;;;;;;16.17;14.10;;;;;;;;;;4975232;28;20031;-81
2022/06/01 04:13:11;;;;;;;18.63;14.15;;;;;;;;;;4941604;28;20121;-81
2022/06/01 04:15:38;;;;;;;18.20;15.27;;;;;;;;;;4958033;28;20429;-82
2022/06/01 04:18:04;;;;;;;19.98;14.40;;;;;;;;;;4941496;28;20053;-82
2022/06/01 04:20:30;;;;;;;18.55;14.02;;;;;;;;;;4957640;28;20071;-81
2022/06/01 04:22:58;;;;;;;18.25;14.45;;;;;;;;;;4957444;28;20125;-81
2022/06/01 04:25:24;;;;;;;16.23;14.48;;;;;;;;;;4975037;28;20095;-81
2022/06/01 04:27:50;;;;;;;16.98;13.68;;;;;;;;;;4974812;28;20046;-81
2022/06/01 04:30:17;;;;;;;19.40;15.73;;;;;;;;;;4974936;28;20490;-81
2022/06/01 04:32:45;;;;;;;18.23;14.18;;;;;;;;;;4957494;28;20043;-81
2022/06/01 04:35:11;;;;;;;17.15;14.30;;;;;;;;;;4941516;28;20078;-81
2022/06/01 04:37:37;;;;;;;19.42;14.85;;;;;;;;;;4957349;28;20053;-81
2022/06/01 04:40:04;;;;;;;18.55;15.07;;;;;;;;;;4957167;28;20061;-81
2022/06/01 04:42:30;;;;;;;19.05;15.02;;;;;;;;;;4957366;28;20046;-82
2022/06/01 04:44:56;;;;;;;17.92;14.38;;;;;;;;;;4956914;28;20051;-81
2022/06/01 04:47:22;;;;;;;16.95;14.98;;;;;;;;;;4957459;28;20109;-81
2022/06/01 04:49:48;;;;;;;16.10;14.40;;;;;;;;;;4956858;28;20038;-81
2022/06/01 04:52:14;;;;;;;18.75;15.10;;;;;;;;;;4957101;28;20066;-84
2022/06/01 04:54:40;;;;;;;18.15;14.75;;;;;;;;;;4956904;28;20418;-81
2022/06/01 04:57:07;;;;;;;20.90;16.75;;;;;;;;;;4957308;28;20047;-82
2022/06/01 04:59:33;;;;;;;17.48;15.50;;;;;;;;;;4940697;28;20043;-82
2022/06/01 05:01:59;;;;;;;19.17;15.85;;;;;;;;;;4956944;28;20050;-82
2022/06/01 05:04:28;;;;;;;21.48;16.33;;;;;;;;;;4956786;28;20043;-82
2022/06/01 05:06:54;;;;;;;19.02;16.77;;;;;;;;;;4956864;28;20138;-82
2022/06/01 05:09:20;;;;;;;20.10;16.55;;;;;;;;;;4957011;28;20054;-81
2022/06/01 05:11:46;;;;;;;23.17;17.85;;;;;;;;;;4957006;28;20047;-82
2022/06/01 05:14:12;;;;;;;18.75;15.98;;;;;;;;;;4974139;28;20514;-83
2022/06/01 05:16:38;;;;;;;19.45;17.05;;;;;;;;;;4974306;28;20053;-82
2022/06/01 05:19:04;;;;;;;19.23;17.23;;;;;;;;;;4956880;28;20126;-82
2022/06/01 05:21:30;;;;;;;20.50;18.02;;;;;;;;;;4956710;28;20057;-82
2022/06/01 05:23:56;;;;;;;21.27;17.63;;;;;;;;;;4957258;28;20046;-82
2022/06/01 05:26:22;;;;;;;23.88;17.98;;;;;;;;;;4956663;28;20106;-82
2022/06/01 05:28:48;;;;;;;19.33;16.85;;;;;;;;;;4956710;28;20079;-82
2022/06/01 05:31:14;;;;;;;20.65;16.95;;;;;;;;;;4974038;28;20063;-82
2022/06/01 05:33:43;;;;;;;18.55;16.35;;;;;;;;;;4956443;28;20097;-83
2022/06/01 05:36:09;;;;;;;22.42;17.83;;;;;;;;;;4974119;28;20043;-82
2022/06/01 05:38:35;;;;;;;23.40;19.65;;;;;;;;;;4956431;28;20542;-82
2022/06/01 05:41:02;;;;;;;21.05;17.90;;;;;;;;;;4956763;28;20070;-82
2022/06/01 05:43:28;;;;;;;19.65;17.55;;;;;;;;;;4956375;28;20046;-82
2022/06/01 05:45:54;;;;;;;20.90;18.70;;;;;;;;;;4956328;28;20415;-82
2022/06/01 05:48:21;;;;;;;23.35;18.08;;;;;;;;;;4956385;28;20074;-82
2022/06/01 05:50:46;;;;;;;20.65;17.55;;;;;;;;;;4956878;28;20390;-81
2022/06/01 05:53:13;;;;;;;20.88;18.30;;;;;;;;;;4959241;28;20049;-82
2022/06/01 05:55:39;;;;;;;22.20;18.52;;;;;;;;;;4960291;28;20042;-82
2022/06/01 05:58:14;;;;;;;20.67;18.48;;;;;;;;;;4960156;28;20050;-82
2022/06/01 06:00:41;;;;;;;19.85;16.92;;;;;;;;;;4960230;28;20047;-82
2022/06/01 06:03:07;;;;;;;21.50;17.88;;;;;;;;;;4960088;28;20053;-82
2022/06/01 06:08:19;;;;;;;20.85;18.25;;;;;;;;;;4977459;28;20059;-82
2022/06/01 06:10:45;;;;;;;19.55;17.48;;;;;;;;;;4959996;28;20058;-82
2022/06/01 06:13:11;;;;;;;19.83;17.40;;;;;;;;;;4977550;28;20402;-81
2022/06/01 06:15:37;;;;;;;21.50;16.95;;;;;;;;;;4959765;28;20081;-81
2022/06/01 06:18:03;;;;;;;19.15;17.05;;;;;;;;;;4959979;28;20438;-82
2022/06/01 06:20:29;;;;;;;19.35;17.23;;;;;;;;;;4959645;28;20049;-81
2022/06/01 06:22:56;;;;;;;18.98;16.23;;;;;;;;;;4959799;28;20043;-82
2022/06/01 06:25:22;;;;;;;18.80;16.48;;;;;;;;;;4959739;28;20074;-82
2022/06/01 06:27:47;;;;;;;17.17;15.07;;;;;;;;;;4977196;28;20034;-82
2022/06/01 06:30:18;;;;;;;17.50;14.52;;;;;;;;;;4943758;28;20445;-81
2022/06/01 06:32:44;;;;;;;16.77;14.55;;;;;;;;;;4977190;28;20105;-82
2022/06/01 06:35:10;;;;;;;19.88;14.43;;;;;;;;;;4976714;28;20043;-81
2022/06/01 06:37:36;;;;;;;16.65;14.85;;;;;;;;;;4959531;28;20482;-82
2022/06/01 06:40:02;;;;;;;16.88;14.10;;;;;;;;;;4959352;28;20046;-82
2022/06/01 06:42:28;;;;;;;17.50;14.45;;;;;;;;;;4976770;28;20097;-82
2022/06/01 06:44:54;;;;;;;18.55;14.10;;;;;;;;;;4959038;28;20047;-81
2022/06/01 06:47:20;;;;;;;17.02;14.43;;;;;;;;;;4959493;28;20210;-82
2022/06/01 06:49:46;;;;;;;15.95;14.25;;;;;;;;;;4959204;28;20050;-81
2022/06/01 06:52:12;;;;;;;16.02;14.18;;;;;;;;;;4959586;28;20042;-81
2022/06/01 06:54:38;;;;;;;17.70;14.32;;;;;;;;;;4976319;28;20490;-81
2022/06/01 06:57:04;;;;;;;16.38;14.27;;;;;;;;;;4959508;28;20082;-82
2022/06/01 06:59:30;;;;;;;16.92;13.50;;;;;;;;;;4976545;28;20039;-81
2022/06/01 07:01:56;;;;;;;15.52;13.10;;;;;;;;;;4943237;28;20553;-82
2022/06/01 07:04:22;;;;;;;15.73;13.27;;;;;;;;;;4959138;28;20129;-82
2022/06/01 07:06:49;;;;;;;16.63;14.05;;;;;;;;;;4976183;28;20047;-82
2022/06/01 07:09:15;;;;;;;16.20;12.80;;;;;;;;;;4942893;28;20083;-82
2022/06/01 07:11:41;;;;;;;14.98;12.10;;;;;;;;;;4976430;28;20039;-82
2022/06/01 07:14:07;;;;;;;14.90;13.15;;;;;;;;;;4958793;28;20479;-82
2022/06/01 07:16:34;;;;;;;16.00;13.60;;;;;;;;;;4958797;28;20047;-82
2022/06/01 07:19:01;;;;;;;15.50;12.82;;;;;;;;;;4959025;28;20116;-82
2022/06/01 07:21:28;;;;;;;16.02;12.82;;;;;;;;;;4959053;28;20519;-82
2022/06/01 07:23:54;;;;;;;14.32;12.07;;;;;;;;;;4959035;28;20051;-82
2022/06/01 07:26:25;;;;;;;16.27;12.90;;;;;;;;;;4958355;28;20501;-82
2022/06/01 07:28:51;;;;;;;17.02;14.07;;;;;;;;;;4976216;28;20089;-81
2022/06/01 07:31:17;;;;;;;15.57;12.90;;;;;;;;;;4958545;28;20278;-82
2022/06/01 07:33:44;;;;;;;14.68;12.40;;;;;;;;;;4958602;28;20421;-82
2022/06/01 07:36:11;;;;;;;16.73;12.48;;;;;;;;;;4958376;28;20050;-82
2022/06/01 07:44:26;;;;;;;14.18;11.55;;;;;;;;;;4958133;28;20097;-82
2022/06/01 07:46:53;;;;;;;14.15;11.07;;;;;;;;;;4958112;28;20124;-82
2022/06/01 07:49:19;;;;;;;11.73;10.38;;;;;;;;;;4975527;28;20043;-82
2022/06/01 07:51:45;;;;;;;10.38;8.63;;;;;;;;;;4975582;28;20121;-82
2022/06/01 07:54:11;;;;;;;10.23;8.18;;;;;;;;;;4975741;28;20047;-81
2022/06/01 07:56:37;;;;;;;10.60;8.55;;;;;;;;;;4957811;28;20051;-81
2022/06/01 07:59:05;;;;;;;9.95;8.27;;;;;;;;;;4942050;28;20055;-81
2022/06/01 08:01:31;;;;;;;10.52;7.97;;;;;;;;;;4975640;28;20486;-83
2022/06/01 08:03:58;;;;;;;10.50;8.48;;;;;;;;;;4958002;28;20085;-81
2022/06/01 08:06:24;;;;;;;8.90;7.45;;;;;;;;;;4975027;28;20043;-81
2022/06/01 08:08:50;;;;;;;8.32;5.05;;;;;;;;;;4957925;28;20043;-81
2022/06/01 08:11:17;;;;;;;10.38;6.90;;;;;;;;;;4957604;28;20056;-81
2022/06/01 08:13:43;;;;;;;10.73;7.75;;;;;;;;;;4975444;28;20090;-81
2022/06/01 08:16:09;;;;;;;9.88;7.47;;;;;;;;;;4957076;28;20072;-81
2022/06/01 08:18:36;;;;;;;10.10;8.27;;;;;;;;;;4957739;28;20043;-81
2022/06/01 08:21:03;;;;;;;10.80;8.00;;;;;;;;;;4957680;28;20039;-81
2022/06/01 08:23:30;;;;;;;10.63;8.45;;;;;;;;;;4975152;28;20126;-81
2022/06/01 08:25:56;;;;;;;10.02;7.75;;;;;;;;;;4974676;28;20122;-81
2022/06/01 08:28:23;;;;;;;11.90;8.80;;;;;;;;;;4957786;28;20042;-81
2022/06/01 08:30:49;;;;;;;12.50;9.02;;;;;;;;;;4974858;28;20121;-81
2022/06/01 08:33:15;;;;;;;11.35;8.68;;;;;;;;;;4957702;28;20556;-81
2022/06/01 08:35:43;;;;;;;11.85;9.75;;;;;;;;;;4957063;28;20407;-81
2022/06/01 08:38:09;;;;;;;12.45;9.98;;;;;;;;;;4957373;28;20413;-82
2022/06/01 08:40:55;;;;;;;11.88;9.85;;;;;;;;;;4974435;28;20405;-81
2022/06/01 08:43:23;;;;;;;12.73;10.40;;;;;;;;;;4974394;28;20058;-81
2022/06/01 08:45:52;;;;;;;12.70;11.27;;;;;;;;;;4956916;28;20059;-81
2022/06/01 08:48:24;;;;;;;14.32;11.63;;;;;;;;;;4957075;28;20042;-81
2022/06/01 08:50:52;;;;;;;16.02;12.18;;;;;;;;;;4957184;28;20049;-81
2022/06/01 08:53:20;;;;;;;12.73;10.43;;;;;;;;;;4974446;28;20081;-82
2022/06/01 08:55:55;;;;;;;11.82;9.88;;;;;;;;;;4957001;28;20078;-82
2022/06/01 08:58:31;;;;;;;10.55;8.70;;;;;;;;;;4974598;28;20048;-81
2022/06/01 09:01:00;;;;;;;9.95;7.25;;;;;;;;;;4956843;28;20097;-81
2022/06/01 09:03:32;;;;;;;9.38;6.40;;;;;;;;;;4974430;28;20097;-82
2022/06/01 09:06:05;;;;;;;8.18;6.43;;;;;;;;;;4956901;28;20440;-82
2022/06/01 09:08:40;;;;;;;8.73;5.63;;;;;;;;;;4957215;28;20054;-81
2022/06/01 09:11:11;;;;;;;7.78;5.40;;;;;;;;;;4957038;28;20039;-81
2022/06/01 09:13:43;;;;;;;7.30;5.45;;;;;;;;;;4974191;28;20390;-81
2022/06/01 09:16:17;;;;;;;7.68;5.32;;;;;;;;;;4956851;28;20429;-81
2022/06/01 09:18:50;;;;;;;7.38;4.80;;;;;;;;;;4956827;28;20050;-82
2022/06/01 09:24:13;;;;;;;9.18;4.68;;;;;;;;;;4974272;28;20042;-83
2022/06/01 09:27:09;;;;;;;8.80;4.30;;;;;;;;;;4955566;28;20074;-83
2022/06/01 09:29:45;;;;;;;7.95;4.30;;;;;;;;;;4944927;28;20046;-82
2022/06/01 09:32:28;;;;;;;6.63;4.75;;;;;;;;;;4956536;28;20043;-82
2022/06/01 09:34:55;;;;;;;6.45;4.13;;;;;;;;;;4956720;28;20050;-82
2022/06/01 09:37:23;;;;;;;6.13;4.22;;;;;;;;;;4956375;28;20090;-82
2022/06/01 09:39:54;;;;;;;8.43;5.38;;;;;;;;;;4956833;28;20502;-82
2022/06/01 09:42:25;;;;;;;7.47;4.82;;;;;;;;;;4956469;28;20046;-82
2022/06/01 09:44:52;;;;;;;6.80;4.85;;;;;;;;;;4940736;28;20078;-83
2022/06/01 09:47:34;;;;;;;7.63;4.80;;;;;;;;;;4956329;28;20062;-82
2022/06/01 09:50:00;;;;;;;7.55;4.80;;;;;;;;;;4956834;28;20054;-83
2022/06/01 09:52:32;;;;;;;7.72;5.35;;;;;;;;;;4956365;28;20105;-83
2022/06/01 09:55:06;;;;;;;9.30;5.85;;;;;;;;;;4956536;28;20050;-82
2022/06/01 09:57:34;;;;;;;7.88;5.50;;;;;;;;;;4956194;28;20093;-83
2022/06/01 10:08:31;;;;;;;7.75;4.80;;;;;;;;;;4940978;28;20047;-82
2022/06/01 10:11:01;;;;;;;7.13;4.68;;;;;;;;;;4956083;28;20512;-84
2022/06/01 10:13:38;;;;;;;8.00;5.50;;;;;;;;;;4973862;28;20049;-85
2022/06/01 10:16:16;;;;;;;6.00;3.55;;;;;;;;;;4956073;28;20054;-84
2022/06/01 10:18:44;;;;;;;5.88;3.90;;;;;;;;;;4956588;28;20422;-84
2022/06/01 10:21:12;;;;;;;6.45;4.43;;;;;;;;;;4973576;28;20039;-84
2022/06/01 10:23:47;;;;;;;10.13;5.60;;;;;;;;;;4956385;28;20042;-82
2022/06/01 10:26:21;;;;;;;10.10;6.10;;;;;;;;;;4955904;28;20118;-83
2022/06/01 10:28:56;;;;;;;11.30;5.67;;;;;;;;;;4973505;28;20439;-84
2022/06/01 10:31:32;;;;;;;9.45;5.75;;;;;;;;;;4973384;28;20278;-84
2022/06/01 10:34:16;;;;;;;12.18;7.45;;;;;;;;;;4956486;28;20081;-87
2022/06/01 10:36:42;;;;;;;8.63;5.57;;;;;;;;;;4955911;28;20054;-84
2022/06/01 10:39:23;;;;;;;47.67;11.18;;;;;;;;;;4958921;28;20053;-84
2022/06/01 10:42:10;;;;;;;8.60;6.38;;;;;;;;;;4959208;28;20042;-84
2022/06/01 10:44:45;;;;;;;11.70;6.25;;;;;;;;;;4949478;28;20050;-84
2022/06/01 10:47:11;;;;;;;;;;;;;;;;;;4959438;28;20054;-85
2022/06/01 10:49:37;;;;;;;;;;;;;;;;;;4959837;28;20396;-84
2022/06/01 10:52:29;;;;;;;6.32;3.80;;;;;;;;;;4959123;28;19922;-86
2022/06/01 10:55:16;;;;;;;6.10;4.10;;;;;;;;;;4952471;28;20055;-86
2022/06/01 10:57:44;;;;;;;6.95;4.50;;;;;;;;;;4959063;28;20494;-87
2022/06/01 11:00:18;;;;;;;7.85;5.05;;;;;;;;;;4959298;28;20046;-85
2022/06/01 11:02:56;;;;;;;5.20;3.63;;;;;;;;;;4958854;28;20047;-85
2022/06/01 11:05:23;;;;;;;5.80;4.20;;;;;;;;;;4958976;28;20053;-85
2022/06/01 11:07:49;;;;;;;6.28;4.05;;;;;;;;;;4976008;28;20512;-83
2022/06/01 11:10:33;;;;;;;6.65;3.40;;;;;;;;;;4959298;28;20039;-86
2022/06/01 11:13:05;;;;;;;5.70;4.25;;;;;;;;;;4958717;28;20125;-85
2022/06/01 11:15:37;;;;;;;5.93;3.85;;;;;;;;;;4942972;28;20442;-84
2022/06/01 11:18:06;;;;;;;6.30;4.32;;;;;;;;;;4958729;28;20047;-87
2022/06/01 11:20:42;;;;;;;7.35;5.10;;;;;;;;;;4942759;28;20362;-85
2022/06/01 11:23:09;;;;;;;8.57;5.15;;;;;;;;;;4958564;28;20042;-84
2022/06/01 11:25:39;;;;;;;9.65;6.70;;;;;;;;;;4958661;28;20047;-87
2022/06/01 11:28:15;;;;;;;14.73;7.63;;;;;;;;;;4958372;28;20046;-86
2022/06/01 11:30:50;;;;;;;9.35;5.20;;;;;;;;;;4958789;28;20553;-86
2022/06/01 11:33:19;;;;;;;6.93;5.40;;;;;;;;;;4975690;28;20043;-86
2022/06/01 11:35:50;;;;;;;9.30;7.03;;;;;;;;;;4958654;28;20453;-86
2022/06/01 11:38:20;;;;;;;9.32;7.05;;;;;;;;;;4958447;28;20125;-86
2022/06/01 11:40:50;;;;;;;7.35;6.15;;;;;;;;;;4958493;28;20081;-85
2022/06/01 11:43:28;;;;;;;9.15;6.45;;;;;;;;;;4958091;28;20047;-84
2022/06/01 11:45:56;;;;;;;7.25;5.32;;;;;;;;;;4975415;28;20134;-83
2022/06/01 11:48:29;;;;;;;9.57;5.63;;;;;;;;;;4975540;28;20051;-83
2022/06/01 11:50:55;;;;;;;9.57;5.32;;;;;;;;;;4941523;28;20506;-82
2022/06/01 11:53:23;;;;;;;10.07;6.53;;;;;;;;;;4975463;28;20034;-83
2022/06/01 11:55:49;;;;;;;7.38;5.05;;;;;;;;;;4958002;28;20100;-82
2022/06/01 11:58:21;;;;;;;7.43;5.13;;;;;;;;;;4957772;28;20183;-82
2022/06/01 12:00:57;;;;;;;8.10;5.28;;;;;;;;;;4957956;28;20388;-82
2022/06/01 12:03:26;;;;;;;8.13;5.82;;;;;;;;;;4975371;28;20039;-83
2022/06/01 12:05:59;;;;;;;7.82;5.05;;;;;;;;;;4975276;28;20419;-83
2022/06/01 12:08:47;;;;;;;7.22;4.90;;;;;;;;;;4975202;28;20051;-83
2022/06/01 12:11:15;;;;;;;7.15;4.97;;;;;;;;;;4958013;28;20482;-83
2022/06/01 12:13:41;;;;;;;7.03;5.22;;;;;;;;;;4974985;28;20043;-82
2022/06/01 12:16:19;;;;;;;8.10;5.93;;;;;;;;;;4957633;28;20113;-82
2022/06/01 12:18:59;;;;;;;8.52;5.72;;;;;;;;;;4957656;28;20423;-83
2022/06/01 12:21:25;;;;;;;10.07;4.30;;;;;;;;;;4975059;28;20074;-83
2022/06/01 12:29:32;;;;;;;5.18;2.70;;;;;;;;;;4974933;28;20121;-83
2022/06/01 12:31:58;;;;;;;6.13;2.60;;;;;;;;;;4957453;28;20074;-83
2022/06/01 12:34:28;;;;;;;6.90;3.42;;;;;;;;;;4974766;28;20066;-82
2022/06/01 12:37:09;;;;;;;5.60;3.63;;;;;;;;;;4957239;28;20047;-83
2022/06/01 12:39:41;;;;;;;5.25;3.65;;;;;;;;;;4957402;28;20058;-82
2022/06/01 12:42:15;;;;;;;7.82;3.20;;;;;;;;;;4974670;28;20074;-83
2022/06/01 12:44:43;;;;;;;4.73;3.10;;;;;;;;;;4957245;28;20129;-82
2022/06/01 12:47:22;;;;;;;6.13;3.97;;;;;;;;;;4974389;28;20306;-82
2022/06/01 12:49:48;;;;;;;8.82;4.18;;;;;;;;;;4957237;28;20096;-82
2022/06/01 12:52:19;;;;;;;7.25;4.03;;;;;;;;;;4957232;28;20121;-81
2022/06/01 12:54:52;;;;;;;6.40;4.10;;;;;;;;;;4957007;28;20050;-82
2022/06/01 12:57:26;;;;;;;6.57;4.10;;;;;;;;;;4957054;28;20078;-82
2022/06/01 12:59:56;;;;;;;6.03;4.47;;;;;;;;;;4974601;28;20050;-82
2022/06/01 13:02:22;;;;;;;6.63;4.70;;;;;;;;;;4956750;28;20050;-82
2022/06/01 13:04:53;;;;;;;6.18;4.35;;;;;;;;;;4956910;28;20406;-82
2022/06/01 13:07:19;;;;;;;6.85;4.57;;;;;;;;;;4956780;28;20047;-82
2022/06/01 13:09:45;;;;;;;6.38;4.50;;;;;;;;;;4956855;28;20483;-82
2022/06/01 13:12:16;;;;;;;6.00;4.20;;;;;;;;;;4974428;28;20095;-82
2022/06/01 13:14:42;;;;;;;4.50;2.67;;;;;;;;;;4956828;28;20051;-82
2022/06/01 13:17:11;;;;;;;4.03;2.03;;;;;;;;;;4956845;28;20058;-82
2022/06/01 13:19:39;;;;;;;3.72;2.00;;;;;;;;;;4956741;28;20198;-82
2022/06/01 13:22:11;;;;;;;6.90;1.90;;;;;;;;;;4940659;28;20125;-83
2022/06/01 13:24:41;;;;;;;3.55;1.70;;;;;;;;;;4956440;28;20479;-82
2022/06/01 13:27:07;;;;;;;3.10;0.85;;;;;;;;;;4974015;28;20038;-83
2022/06/01 13:29:38;;;;;;;4.93;0.90;;;;;;;;;;4956451;28;20043;-82
2022/06/01 13:32:06;;;;;;;1.38;0.68;;;;;;;;;;4973929;28;20121;-82
2022/06/01 13:34:44;;;;;;;1.58;0.80;;;;;;;;;;4956733;28;20360;-82
2022/06/01 13:37:15;;;;;;;2.28;1.00;;;;;;;;;;4973875;28;20047;-82
2022/06/01 13:39:42;;;;;;;2.13;0.75;;;;;;;;;;4956440;28;20498;-82
2022/06/01 13:42:08;;;;;;;3.85;1.27;;;;;;;;;;4956527;28;20053;-82
2022/06/01 13:44:45;;;;;;;3.95;1.38;;;;;;;;;;4973865;28;20042;-83
2022/06/01 13:47:11;;;;;;;4.45;1.20;;;;;;;;;;4973636;28;20158;-82
2022/06/01 13:49:41;;;;;;;4.55;1.30;;;;;;;;;;4950885;28;20054;-83
2022/06/01 13:52:07;;;;;;;2.05;1.00;;;;;;;;;;4956676;28;20415;-83
2022/06/01 13:54:36;;;;;;;16.10;10.75;;;;;;;;;;4956239;28;20043;-82
2022/06/01 13:57:11;;;;;;;3.45;1.40;;;;;;;;;;4956589;28;20454;-83
2022/06/01 13:59:38;;;;;;;3.10;1.33;;;;;;;;;;4956202;28;20046;-83
2022/06/01 14:02:13;;;;;;;3.50;1.73;;;;;;;;;;4938091;29;20043;-86
2022/06/01 14:04:41;;;;;;;29.30;26.50;;;;;;;;;;4936980;28;20050;-83
2022/06/01 14:07:12;;;;;;;3.33;1.70;;;;;;;;;;4936095;29;20447;-82
2022/06/01 14:09:46;;;;;;;2.90;1.50;;;;;;;;;;4937040;29;20043;-83
2022/06/01 14:12:14;;;;;;;4.43;1.83;;;;;;;;;;4949054;28;20077;-81
2022/06/01 14:14:41;;;;;;;4.00;1.92;;;;;;;;;;4977214;28;20050;-82
2022/06/01 14:17:09;;;;;;;3.58;1.92;;;;;;;;;;4960255;28;20043;-81
2022/06/01 14:19:35;;;;;;;4.35;1.92;;;;;;;;;;4959763;28;20049;-82
2022/06/01 14:22:02;;;;;;;4.93;2.78;;;;;;;;;;4959977;28;20074;-82
2022/06/01 14:28:28;;;;;;;2.90;1.70;;;;;;;;;;4959892;28;20461;-82
2022/06/01 14:29:58;;;;;;;3.42;1.65;;;;;;;;;;4959538;28;20129;-86
2022/06/01 14:32:25;;;;;;;3.25;1.73;;;;;;;;;;4942762;28;20174;-82
2022/06/01 14:34:51;;;;;;;9.68;8.00;;;;;;;;;;4959522;28;20422;-82
2022/06/01 14:37:17;;;;;;;8.90;5.95;;;;;;;;;;4959682;28;20042;-82
2022/06/01 14:39:43;;;;;;;4.75;2.28;;;;;;;;;;4959723;28;20390;-81
2022/06/01 14:42:09;;;;;;;4.63;2.40;;;;;;;;;;4976833;28;20043;-81
2022/06/01 14:44:35;;;;;;;5.53;3.72;;;;;;;;;;4959608;28;20170;-82
2022/06/01 14:47:01;;;;;;;7.05;4.55;;;;;;;;;;4976498;28;20050;-84
2022/06/01 14:49:27;;;;;;;13.15;6.53;;;;;;;;;;4943168;28;20046;-82
2022/06/01 14:52:01;;;;;;;8.27;4.78;;;;;;;;;;4959410;28;20078;-82
2022/06/01 14:54:28;;;;;;;6.10;3.35;;;;;;;;;;4976606;28;20449;-82
2022/06/01 14:56:54;;;;;;;5.97;3.70;;;;;;;;;;4959407;28;20129;-82
2022/06/01 14:59:20;;;;;;;5.43;2.67;;;;;;;;;;4959317;28;20047;-82
2022/06/01 15:01:48;;;;;;;4.80;2.90;;;;;;;;;;4959216;28;20069;-82
2022/06/01 15:04:16;;;;;;;11.50;7.38;;;;;;;;;;4959192;28;20058;-82
2022/06/01 15:06:43;;;;;;;10.65;6.93;;;;;;;;;;4976429;28;20043;-82
2022/06/01 15:09:10;;;;;;;4.80;2.70;;;;;;;;;;4958791;28;20050;-82
2022/06/01 15:11:36;;;;;;;5.60;2.80;;;;;;;;;;4959019;28;20055;-83
2022/06/01 15:14:03;;;;;;;15.10;10.00;;;;;;;;;;4976011;28;20402;-83